Time;durP1;ratioP1;P1;durP2;ratioP2;P2;SDS_P1;SDS_P2;PMS_P1;PMS_P2;Temp;Humidity;BMP_temperature;BMP_pressure;BME280_temperature;BME280_humidity;BME280_pressure;Samples;Min_cycle;Max_cycle;Signal;HPM_P1;HPM_P2
2021/01/30 00:02:23;;;;;;;0.40;0.30;;;;;;;0.22;96.72;99131.06;5033970;28;20861;-68
2021/01/30 00:04:49;;;;;;;0.40;0.30;;;;;;;0.25;96.64;99130.53;5033683;28;20938;-68
2021/01/30 00:07:16;;;;;;;0.97;0.80;;;;;;;0.28;96.71;99127.34;5033620;28;20813;-68
2021/01/30 00:09:42;;;;;;;0.40;0.30;;;;;;;0.24;97.03;99140.38;5033865;28;20441;-67
2021/01/30 00:12:09;;;;;;;0.60;0.50;;;;;;;0.23;97.71;99136.13;5033787;28;20493;-67
2021/01/30 00:14:37;;;;;;;0.40;0.30;;;;;;;0.23;97.50;99138.81;5033478;28;20914;-68
2021/01/30 00:17:06;;;;;;;0.83;0.60;;;;;;;0.20;98.11;99144.66;5033681;28;20451;-65
2021/01/30 00:19:33;;;;;;;0.63;0.50;;;;;;;0.25;98.81;99144.63;5033800;28;20435;-68
2021/01/30 00:22:05;;;;;;;0.40;0.30;;;;;;;0.25;99.10;99149.97;5033648;28;20524;-66
2021/01/30 00:24:31;;;;;;;0.50;0.47;;;;;;;0.22;99.13;99147.88;5033320;28;20934;-69
2021/01/30 00:26:59;;;;;;;0.40;0.40;;;;;;;0.21;99.21;99151.56;5033600;28;20439;-68
2021/01/30 00:29:28;;;;;;;0.40;0.30;;;;;;;0.21;98.81;99154.22;5033574;28;20446;-68
2021/01/30 00:31:54;;;;;;;0.60;0.60;;;;;;;0.25;99.51;99155.28;5033413;28;20475;-67
2021/01/30 00:34:24;;;;;;;0.40;0.40;;;;;;;0.29;98.75;99152.09;5033255;28;20842;-68
2021/01/30 00:36:51;;;;;;;0.40;0.30;;;;;;;0.27;98.93;99146.22;5033425;28;20855;-67
2021/01/30 00:39:17;;;;;;;0.50;0.50;;;;;;;0.28;98.91;99158.50;5033405;28;20450;-68
2021/01/30 00:41:43;;;;;;;1.30;1.23;;;;;;;0.29;98.69;99154.75;5032986;28;20465;-68
2021/01/30 00:44:10;;;;;;;0.90;0.90;;;;;;;0.15;98.36;99151.84;5033397;28;20445;-67
2021/01/30 00:46:36;;;;;;;0.90;0.90;;;;;;;0.13;98.30;99149.44;5033328;28;20439;-68
2021/01/30 00:49:02;;;;;;;2.03;0.60;;;;;;;0.12;98.16;99155.84;5032952;28;20443;-67
2021/01/30 00:51:29;;;;;;;0.70;0.70;;;;;;;0.10;97.73;99149.19;5032469;28;20478;-68
2021/01/30 00:53:55;;;;;;;0.40;0.30;;;;;;;-0.02;97.15;99152.91;5032962;28;20439;-67
2021/01/30 00:56:21;;;;;;;0.40;0.30;;;;;;;-0.07;97.46;99162.78;5033225;28;20447;-66
2021/01/30 00:58:47;;;;;;;2.77;1.60;;;;;;;-0.07;97.87;99168.88;5033311;28;20482;-68
2021/01/30 01:01:13;;;;;;;0.83;0.60;;;;;;;-0.16;97.41;99159.03;5033068;28;20532;-68
2021/01/30 01:03:40;;;;;;;2.10;0.73;;;;;;;-0.13;98.25;99161.19;5032870;28;21064;-67
2021/01/30 01:06:06;;;;;;;0.40;0.30;;;;;;;-0.10;98.16;99169.41;5033103;28;20449;-67
2021/01/30 01:08:34;;;;;;;0.40;0.30;;;;;;;-0.06;98.15;99173.16;5032774;28;20968;-67
2021/01/30 01:11:01;;;;;;;0.57;0.50;;;;;;;0.00;98.31;99168.63;5032674;28;20549;-68
2021/01/30 01:13:28;;;;;;;0.90;0.40;;;;;;;-0.08;97.20;99164.63;5032749;28;20953;-68
2021/01/30 01:15:54;;;;;;;0.40;0.40;;;;;;;-0.16;98.23;99162.50;5033015;28;20450;-68
2021/01/30 01:18:20;;;;;;;0.40;0.30;;;;;;;-0.12;99.05;99160.91;5032886;28;20487;-68
2021/01/30 01:20:46;;;;;;;0.60;0.60;;;;;;;-0.05;99.81;99164.09;5032914;28;20491;-68
2021/01/30 01:23:13;;;;;;;1.23;1.13;;;;;;;-0.09;99.46;99164.88;5032943;28;20522;-69
2021/01/30 01:25:40;;;;;;;2.50;0.80;;;;;;;-0.03;99.75;99172.63;5032569;28;20435;-67
2021/01/30 01:28:06;;;;;;;0.57;0.53;;;;;;;-0.12;98.69;99176.09;5032923;28;20435;-67
2021/01/30 01:30:32;;;;;;;0.60;0.60;;;;;;;-0.09;98.45;99181.69;5032868;28;20531;-68
2021/01/30 01:32:59;;;;;;;0.40;0.30;;;;;;;-0.29;97.69;99176.31;5032792;28;20534;-67
2021/01/30 01:35:28;;;;;;;0.60;0.40;;;;;;;-0.21;98.23;99186.44;5032809;28;20443;-68
2021/01/30 01:37:55;;;;;;;0.40;0.30;;;;;;;-0.14;97.65;99199.47;5032695;28;20528;-68
2021/01/30 01:40:24;;;;;;;0.40;0.30;;;;;;;-0.08;97.85;99193.13;5032845;28;20441;-68
2021/01/30 01:42:57;;;;;;;0.47;0.47;;;;;;;-0.12;97.63;99184.84;5032610;28;20486;-68
2021/01/30 01:45:23;;;;;;;0.40;0.40;;;;;;;-0.16;97.74;99183.00;5032697;28;20550;-68
2021/01/30 01:47:49;;;;;;;0.40;0.30;;;;;;;-0.31;97.66;99175.78;5032363;28;20447;-67
2021/01/30 01:50:33;;;;;;;0.47;0.40;;;;;;;-0.27;97.97;99185.66;5032734;28;20455;-68
2021/01/30 01:53:05;;;;;;;0.40;0.40;;;;;;;-0.24;98.30;99188.84;5032712;28;20434;-68
2021/01/30 01:55:31;;;;;;;0.93;0.93;;;;;;;-0.21;98.82;99196.28;5032716;28;20435;-68
2021/01/30 01:58:01;;;;;;;0.77;0.77;;;;;;;-0.23;98.93;99212.50;5032670;28;20832;-67
2021/01/30 02:00:27;;;;;;;0.40;0.30;;;;;;;-0.13;99.14;99195.78;5032755;28;20518;-68
2021/01/30 02:02:55;;;;;;;0.97;0.87;;;;;;;-0.09;99.64;99178.19;5036249;28;20463;-68
2021/01/30 02:05:25;;;;;;;0.40;0.30;;;;;;;0.00;99.41;99179.28;5036269;28;20496;-73
2021/01/30 02:07:53;;;;;;;0.40;0.30;;;;;;;0.01;99.35;99188.88;5035598;28;20787;-70
2021/01/30 02:10:23;;;;;;;1.80;1.60;;;;;;;-0.09;98.78;99187.00;5035728;28;21009;-68
2021/01/30 02:12:50;;;;;;;0.40;0.30;;;;;;;-0.15;99.50;99189.91;5036059;28;20459;-67
2021/01/30 02:15:19;;;;;;;0.67;0.67;;;;;;;-0.06;99.31;99196.28;5036039;28;20526;-68
2021/01/30 02:17:52;;;;;;;0.40;0.30;;;;;;;-0.12;99.86;99206.16;5035960;28;20856;-67
2021/01/30 02:20:55;;;;;;;0.40;0.30;;;;;;;-0.02;99.48;99218.66;5036041;28;20432;-68
2021/01/30 02:24:12;;;;;;;0.40;0.30;;;;;;;0.06;99.14;99209.34;5035538;28;20953;-67
2021/01/30 02:27:22;;;;;;;0.40;0.30;;;;;;;-0.10;98.97;99213.84;5035944;28;20460;-67
2021/01/30 02:30:10;;;;;;;0.40;0.30;;;;;;;-0.09;98.87;99207.47;5020251;28;20508;-68
2021/01/30 02:32:55;;;;;;;0.53;0.40;;;;;;;-0.08;98.26;99198.44;5035661;28;20470;-68
2021/01/30 02:35:30;;;;;;;0.40;0.30;;;;;;;-0.11;98.00;99196.28;5035820;28;20415;-68
2021/01/30 02:38:02;;;;;;;0.40;0.30;;;;;;;-0.28;97.55;99202.66;5035677;28;20473;-67
2021/01/30 02:40:34;;;;;;;0.50;0.50;;;;;;;-0.33;98.31;99194.66;5035457;28;20413;-68
2021/01/30 02:43:05;;;;;;;2.63;2.30;;;;;;;-0.53;97.50;99197.31;5035575;28;20522;-67
2021/01/30 02:45:34;;;;;;;0.67;0.60;;;;;;;-0.59;98.62;99217.75;5035625;28;20424;-67
2021/01/30 02:48:05;;;;;;;0.40;0.30;;;;;;;-0.50;98.44;99215.38;5035494;28;20497;-67
2021/01/30 02:50:39;;;;;;;0.40;0.30;;;;;;;-0.44;98.83;99230.31;5036288;28;20431;-68
2021/01/30 02:53:08;;;;;;;0.40;0.30;;;;;;;-0.41;99.21;99237.75;5035443;28;20435;-68
2021/01/30 02:55:34;;;;;;;0.40;0.30;;;;;;;-0.43;98.83;99237.22;5035016;28;20446;-67
2021/01/30 02:58:02;;;;;;;0.50;0.40;;;;;;;-0.58;98.89;99232.63;5035275;28;20489;-67
2021/01/30 03:00:28;;;;;;;0.40;0.30;;;;;;;-0.52;99.24;99236.13;5035281;28;20447;-67
2021/01/30 03:02:54;;;;;;;0.40;0.30;;;;;;;-0.47;99.26;99244.13;5035238;28;20439;-68
2021/01/30 03:05:22;;;;;;;1.10;1.00;;;;;;;-0.41;99.21;99242.25;5035249;28;20450;-68
2021/01/30 03:08:14;;;;;;;0.40;0.30;;;;;;;-0.41;99.20;99247.59;5035173;28;20439;-67
2021/01/30 03:10:50;;;;;;;0.73;0.73;;;;;;;-0.32;99.16;99244.16;5035047;28;20450;-68
2021/01/30 03:13:22;;;;;;;0.50;0.50;;;;;;;-0.31;99.72;99247.59;5034402;28;20441;-67
2021/01/30 03:15:55;;;;;;;0.40;0.30;;;;;;;-0.29;100.00;99259.59;5035092;28;20790;-68
2021/01/30 03:18:24;;;;;;;0.40;0.30;;;;;;;-0.26;99.88;99267.06;5034729;28;20493;-67
2021/01/30 03:20:51;;;;;;;0.40;0.40;;;;;;;-0.32;99.63;99276.06;5034824;28;20846;-68
2021/01/30 03:23:20;;;;;;;0.50;0.40;;;;;;;-0.23;100.00;99286.19;5034862;28;20447;-68
2021/01/30 03:25:48;;;;;;;0.80;0.47;;;;;;;-0.17;99.85;99285.19;5034493;28;20843;-67
2021/01/30 03:28:15;;;;;;;0.53;0.53;;;;;;;-0.21;99.62;99289.41;5034460;28;20910;-68
2021/01/30 03:30:42;;;;;;;0.40;0.30;;;;;;;-0.28;99.73;99285.13;5034392;28;20965;-68
2021/01/30 03:33:09;;;;;;;3.93;1.13;;;;;;;-0.32;99.93;99289.38;5034384;28;20968;-67
2021/01/30 03:35:36;;;;;;;0.40;0.30;;;;;;;-0.39;100.00;99288.84;5034625;28;20447;-68
2021/01/30 03:38:02;;;;;;;0.40;0.30;;;;;;;-0.36;100.00;99306.09;5034512;28;20486;-67
2021/01/30 03:40:28;;;;;;;0.77;0.53;;;;;;;-0.40;100.00;99313.00;5034494;28;20451;-67
2021/01/30 03:42:55;;;;;;;0.50;0.40;;;;;;;-0.52;100.00;99310.59;5034199;28;20964;-68
2021/01/30 03:45:27;;;;;;;0.73;0.53;;;;;;;-0.42;100.00;99325.78;5034436;28;20578;-67
2021/01/30 03:47:53;;;;;;;0.40;0.40;;;;;;;-0.43;100.00;99329.50;5034403;28;20779;-67
2021/01/30 03:50:20;;;;;;;0.40;0.30;;;;;;;-0.67;100.00;99339.75;5034381;28;20580;-67
2021/01/30 03:52:47;;;;;;;0.40;0.30;;;;;;;-0.51;100.00;99338.78;5033800;28;20993;-67
2021/01/30 03:55:14;;;;;;;0.63;0.63;;;;;;;-0.42;100.00;99334.56;5034185;28;20534;-68
2021/01/30 03:57:41;;;;;;;0.90;0.90;;;;;;;-0.42;100.00;99347.84;5034121;28;20513;-64
2021/01/30 04:00:12;;;;;;;0.40;0.37;;;;;;;-0.46;100.00;99348.63;5034206;28;20538;-67
2021/01/30 04:02:39;;;;;;;0.40;0.30;;;;;;;-0.47;100.00;99352.34;5034034;28;20462;-68
2021/01/30 04:05:07;;;;;;;0.40;0.30;;;;;;;-0.34;100.00;99359.88;5033733;28;20946;-67
2021/01/30 04:07:33;;;;;;;0.60;0.60;;;;;;;-0.41;100.00;99367.28;5033994;28;20443;-68
2021/01/30 04:09:59;;;;;;;0.63;0.63;;;;;;;-0.37;100.00;99369.16;5033689;28;20447;-68
2021/01/30 04:12:25;;;;;;;0.40;0.30;;;;;;;-0.42;100.00;99371.78;5033631;28;21016;-67
2021/01/30 04:14:52;;;;;;;0.50;0.50;;;;;;;-0.34;100.00;99365.19;5033575;28;20448;-68
2021/01/30 04:17:19;;;;;;;1.57;0.67;;;;;;;-0.24;100.00;99365.22;5033725;28;20451;-68
2021/01/30 04:19:45;;;;;;;1.40;0.87;;;;;;;-0.27;100.00;99363.91;5033852;28;20451;-68
2021/01/30 04:22:11;;;;;;;0.67;0.67;;;;;;;-0.20;100.00;99365.50;5033738;28;20831;-67
2021/01/30 04:24:37;;;;;;;2.93;0.90;;;;;;;-0.20;100.00;99370.81;5034072;28;20819;-68
2021/01/30 04:27:04;;;;;;;0.67;0.67;;;;;;;-0.18;100.00;99376.69;5033872;28;20447;-68
2021/01/30 04:29:30;;;;;;;0.40;0.40;;;;;;;-0.36;100.00;99370.75;5033626;28;20443;-67
2021/01/30 04:31:57;;;;;;;0.60;0.57;;;;;;;-0.34;100.00;99365.97;5033263;28;20463;-68
2021/01/30 04:34:25;;;;;;;0.40;0.30;;;;;;;-0.19;100.00;99372.44;5033193;28;20534;-68
2021/01/30 04:36:51;;;;;;;0.60;0.60;;;;;;;-0.32;100.00;99369.16;5033582;28;20524;-68
2021/01/30 04:39:17;;;;;;;0.40;0.30;;;;;;;-0.24;100.00;99372.41;5033365;28;20483;-67
2021/01/30 04:41:52;;;;;;;0.40;0.30;;;;;;;-0.20;100.00;99381.47;5033344;28;20463;-68
2021/01/30 04:44:27;;;;;;;0.40;0.40;;;;;;;-0.21;100.00;99371.91;5033497;28;20448;-68
2021/01/30 04:47:03;;;;;;;0.50;0.40;;;;;;;-0.15;100.00;99376.16;5033365;28;20488;-68
2021/01/30 04:49:41;;;;;;;5.10;0.60;;;;;;;-0.41;100.00;99385.88;5032961;28;20455;-68
2021/01/30 04:52:13;;;;;;;0.50;0.47;;;;;;;-0.41;100.00;99392.00;5032952;28;20997;-68
2021/01/30 04:54:57;;;;;;;1.43;1.33;;;;;;;-0.45;100.00;99382.13;5033067;28;20805;-68
2021/01/30 04:57:36;;;;;;;0.40;0.30;;;;;;;-0.34;100.00;99397.13;5032776;28;20423;-67
2021/01/30 05:00:30;;;;;;;2.10;0.93;;;;;;;-0.38;100.00;99396.81;5033237;28;20825;-68
2021/01/30 05:03:14;;;;;;;0.70;0.63;;;;;;;-0.35;100.00;99411.47;5032933;28;20434;-68
2021/01/30 05:05:45;;;;;;;0.40;0.30;;;;;;;-0.42;100.00;99406.38;5033174;28;20443;-68
2021/01/30 05:08:19;;;;;;;1.00;0.67;;;;;;;-0.48;100.00;99417.25;5033167;28;20428;-68
2021/01/30 05:10:51;;;;;;;1.63;0.97;;;;;;;-0.36;100.00;99413.31;5032752;28;20964;-68
2021/01/30 05:13:25;;;;;;;0.40;0.30;;;;;;;-0.35;100.00;99425.56;5033138;28;20436;-66
2021/01/30 05:15:54;;;;;;;0.40;0.30;;;;;;;-0.41;100.00;99423.94;5032802;28;20429;-67
2021/01/30 05:18:24;;;;;;;0.40;0.30;;;;;;;-0.49;100.00;99432.38;5032540;28;20927;-68
2021/01/30 05:20:57;;;;;;;1.77;1.13;;;;;;;-0.42;100.00;99438.28;5032950;28;20481;-67
2021/01/30 05:23:24;;;;;;;0.40;0.33;;;;;;;-0.31;100.00;99426.66;5032995;28;20427;-68
2021/01/30 05:25:58;;;;;;;0.57;0.53;;;;;;;-0.42;100.00;99438.28;5032942;28;20435;-68
2021/01/30 05:28:33;;;;;;;1.03;1.03;;;;;;;-0.27;100.00;99445.53;5032930;28;20419;-67
2021/01/30 05:31:19;;;;;;;1.10;1.00;;;;;;;-0.17;100.00;99444.81;5032944;28;20473;-67
2021/01/30 05:34:05;;;;;;;0.40;0.30;;;;;;;-0.11;100.00;99449.09;5032942;28;20428;-72
2021/01/30 05:36:38;;;;;;;0.40;0.30;;;;;;;-0.15;100.00;99454.13;5034487;28;20914;-68
2021/01/30 05:39:13;;;;;;;0.40;0.30;;;;;;;-0.29;100.00;99447.69;5036498;28;20999;-66
2021/01/30 05:41:49;;;;;;;0.70;0.50;;;;;;;-0.20;100.00;99459.44;5036447;28;20462;-66
2021/01/30 05:44:19;;;;;;;0.50;0.47;;;;;;;-0.13;100.00;99468.00;5036684;28;20434;-68
2021/01/30 05:46:48;;;;;;;2.73;0.80;;;;;;;-0.09;100.00;99470.91;5037128;28;20445;-66
2021/01/30 05:49:21;;;;;;;0.40;0.37;;;;;;;-0.04;100.00;99476.28;5036303;28;20438;-68
2021/01/30 05:51:58;;;;;;;0.60;0.60;;;;;;;-0.09;100.00;99481.56;5036261;28;20470;-67
2021/01/30 05:54:24;;;;;;;0.53;0.53;;;;;;;-0.04;100.00;99486.94;5036569;28;20433;-67
2021/01/30 05:56:50;;;;;;;0.90;0.50;;;;;;;-0.01;100.00;99497.84;5037289;28;20860;-71
2021/01/30 05:59:22;;;;;;;0.40;0.40;;;;;;;-0.21;100.00;99499.63;5036567;28;20482;-69
2021/01/30 06:01:49;;;;;;;0.50;0.40;;;;;;;-0.24;100.00;99508.09;5036416;28;20467;-69
2021/01/30 06:04:25;;;;;;;0.50;0.40;;;;;;;-0.16;100.00;99504.97;5036068;28;21074;-69
2021/01/30 06:06:56;;;;;;;0.40;0.30;;;;;;;-0.12;100.00;99514.03;5037425;28;20486;-68
2021/01/30 06:09:36;;;;;;;0.70;0.70;;;;;;;-0.06;100.00;99516.44;5037648;28;20431;-69
2021/01/30 06:12:18;;;;;;;0.40;0.30;;;;;;;0.01;100.00;99526.09;5036237;28;20469;-68
2021/01/30 06:14:44;;;;;;;0.40;0.30;;;;;;;-0.05;100.00;99523.38;5035849;28;20431;-68
2021/01/30 06:17:16;;;;;;;0.40;0.30;;;;;;;-0.15;100.00;99536.63;5036062;28;20519;-69
2021/01/30 06:19:42;;;;;;;0.40;0.30;;;;;;;-0.25;100.00;99536.56;5035778;28;21010;-68
2021/01/30 06:22:22;;;;;;;0.70;0.70;;;;;;;-0.17;100.00;99546.75;5035978;28;20467;-69
2021/01/30 06:24:49;;;;;;;13.73;1.80;;;;;;;-0.15;100.00;99549.94;5035720;28;20438;-69
2021/01/30 06:27:29;;;;;;;0.47;0.40;;;;;;;-0.19;100.00;99553.34;5035879;28;20450;-68
2021/01/30 06:29:58;;;;;;;0.70;0.67;;;;;;;-0.13;100.00;99560.34;5035938;28;20810;-69
2021/01/30 06:32:32;;;;;;;0.40;0.30;;;;;;;-0.08;100.00;99565.69;5035427;28;21059;-69
2021/01/30 06:35:22;;;;;;;0.40;0.30;;;;;;;-0.12;100.00;99576.03;5035879;28;20542;-68
2021/01/30 06:37:52;;;;;;;0.40;0.30;;;;;;;0.01;100.00;99590.78;5035359;28;20504;-68
2021/01/30 06:40:25;;;;;;;0.40;0.40;;;;;;;0.02;100.00;99589.72;5035702;28;20493;-69
2021/01/30 06:42:53;;;;;;;1.07;0.50;;;;;;;0.11;100.00;99609.47;5035295;28;21036;-68
2021/01/30 06:45:28;;;;;;;1.60;1.50;;;;;;;0.09;100.00;99608.94;5035179;28;20487;-69
2021/01/30 06:47:54;;;;;;;0.50;0.50;;;;;;;0.03;100.00;99614.47;5034025;28;20932;-68
2021/01/30 06:50:30;;;;;;;1.17;1.13;;;;;;;0.02;100.00;99619.00;5035325;28;20848;-69
2021/01/30 06:53:11;;;;;;;0.40;0.30;;;;;;;-0.03;100.00;99632.25;5035337;28;20447;-69
2021/01/30 06:55:37;;;;;;;0.50;0.40;;;;;;;-0.09;100.00;99630.59;5035366;28;20497;-68
2021/01/30 06:58:04;;;;;;;0.40;0.30;;;;;;;0.02;100.00;99639.47;5034896;28;21039;-68
2021/01/30 07:00:33;;;;;;;0.40;0.30;;;;;;;-0.06;100.00;99648.72;5034858;28;20451;-69
2021/01/30 07:03:08;;;;;;;0.40;0.30;;;;;;;0.03;100.00;99655.19;5035283;28;20497;-69
2021/01/30 07:05:46;;;;;;;0.40;0.30;;;;;;;-0.12;100.00;99655.06;5035072;28;20797;-69
2021/01/30 07:08:42;;;;;;;0.40;0.30;;;;;;;-0.11;100.00;99662.00;5035160;28;20485;-68
2021/01/30 07:11:37;;;;;;;0.50;0.40;;;;;;;-0.18;100.00;99662.19;5034763;28;20459;-68
2021/01/30 07:14:07;;;;;;;1.90;0.90;;;;;;;-0.17;100.00;99668.34;5035097;28;20427;-69
2021/01/30 07:16:45;;;;;;;1.47;1.23;;;;;;;-0.06;100.00;99678.81;5034623;28;20859;-69
2021/01/30 07:19:23;;;;;;;0.40;0.30;;;;;;;-0.06;100.00;99678.00;5034645;28;20489;-68
2021/01/30 07:21:55;;;;;;;0.40;0.30;;;;;;;0.04;100.00;99686.06;5034911;28;20459;-68
2021/01/30 07:24:28;;;;;;;0.40;0.30;;;;;;;-0.10;100.00;99683.03;5034566;28;20435;-68
2021/01/30 07:27:00;;;;;;;0.40;0.30;;;;;;;-0.05;100.00;99687.59;5034715;28;20447;-68
2021/01/30 07:29:39;;;;;;;2.30;0.70;;;;;;;0.07;100.00;99685.56;5034775;28;20481;-69
2021/01/30 07:32:10;;;;;;;0.63;0.50;;;;;;;0.24;100.00;99690.75;5034602;28;20477;-67
2021/01/30 07:34:47;;;;;;;0.90;0.83;;;;;;;0.30;100.00;99686.28;5034388;28;20962;-69
2021/01/30 07:37:20;;;;;;;0.60;0.50;;;;;;;0.36;100.00;99693.25;5034624;28;20510;-69
2021/01/30 07:39:51;;;;;;;0.40;0.30;;;;;;;0.37;100.00;99685.00;5034582;28;20811;-69
2021/01/30 07:42:23;;;;;;;0.40;0.30;;;;;;;0.35;100.00;99680.97;5034410;28;20489;-74
2021/01/30 07:45:01;;;;;;;0.40;0.40;;;;;;;0.35;100.00;99687.09;5034528;28;20434;-70
2021/01/30 07:47:37;;;;;;;0.40;0.30;;;;;;;0.54;100.00;99692.84;5034426;28;20431;-71
2021/01/30 07:50:07;;;;;;;0.40;0.33;;;;;;;0.57;100.00;99686.97;5033970;28;20914;-70
2021/01/30 07:52:41;;;;;;;0.50;0.50;;;;;;;0.57;100.00;99689.66;5034192;28;20475;-71
2021/01/30 07:55:10;;;;;;;0.40;0.30;;;;;;;0.54;100.00;99695.50;5033879;28;20946;-70
2021/01/30 07:58:00;;;;;;;0.40;0.30;;;;;;;0.59;99.48;99697.41;5033710;28;20558;-71
2021/01/30 08:00:35;;;;;;;0.40;0.30;;;;;;;0.59;99.20;99702.72;5033631;28;20790;-71
2021/01/30 08:03:32;;;;;;;0.50;0.47;;;;;;;0.60;98.85;99701.66;5034221;28;20431;-71
2021/01/30 08:06:10;;;;;;;0.60;0.40;;;;;;;0.52;99.12;99697.63;5033843;28;20510;-71
2021/01/30 08:08:41;;;;;;;0.40;0.30;;;;;;;0.63;99.15;99701.97;5034018;28;20867;-71
2021/01/30 08:11:20;;;;;;;0.60;0.50;;;;;;;0.59;99.65;99697.41;5033981;28;20459;-71
2021/01/30 08:13:55;;;;;;;0.40;0.30;;;;;;;0.66;100.00;99703.28;5033956;28;20453;-71
2021/01/30 08:16:32;;;;;;;2.30;1.03;;;;;;;0.71;100.00;99706.81;5033731;28;20426;-72
2021/01/30 08:19:02;;;;;;;0.40;0.40;;;;;;;0.71;100.00;99706.81;5033921;28;20467;-71
2021/01/30 08:21:36;;;;;;;0.40;0.30;;;;;;;0.80;100.00;99703.63;5033422;28;21001;-71
2021/01/30 08:24:10;;;;;;;0.50;0.40;;;;;;;0.88;99.72;99711.94;5033552;28;20906;-71
2021/01/30 08:26:42;;;;;;;0.40;0.30;;;;;;;0.89;99.34;99713.56;5033821;28;20429;-71
2021/01/30 08:29:18;;;;;;;0.40;0.30;;;;;;;0.80;98.99;99716.97;5033245;28;20430;-70
2021/01/30 08:31:47;;;;;;;0.60;0.60;;;;;;;0.79;100.00;99716.16;5033504;28;20533;-71
2021/01/30 08:34:32;;;;;;;0.40;0.30;;;;;;;0.89;100.00;99723.44;5033233;28;20453;-71
2021/01/30 08:37:00;;;;;;;1.53;1.13;;;;;;;0.92;99.61;99728.22;5033304;28;20529;-70
2021/01/30 08:39:30;;;;;;;0.50;0.50;;;;;;;0.89;99.51;99726.91;5033404;28;20483;-72
2021/01/30 08:42:00;;;;;;;0.40;0.30;;;;;;;0.90;99.09;99727.69;5033434;28;20459;-71
2021/01/30 08:44:36;;;;;;;0.90;0.60;;;;;;;0.90;98.68;99735.69;5033219;28;20431;-70
2021/01/30 08:47:08;;;;;;;6.47;2.00;;;;;;;0.72;99.10;99737.72;5033497;28;20432;-71
2021/01/30 08:49:35;;;;;;;0.40;0.30;;;;;;;0.79;99.39;99739.34;5061595;23;20494;-79
2021/01/30 08:52:21;;;;;;;0.70;0.50;;;;;;;0.88;99.02;99738.59;5055300;28;20525;-78
2021/01/30 08:54:48;;;;;;;0.57;0.57;;;;;;;0.90;99.15;99746.38;5055321;28;20814;-78
2021/01/30 08:57:44;;;;;;;0.40;0.30;;;;;;;0.88;99.29;99743.94;5054909;28;20534;-78
2021/01/30 09:00:47;;;;;;;0.40;0.30;;;;;;;0.93;99.40;99752.00;5060236;22;21023;-68
2021/01/30 09:03:38;;;;;;;0.40;0.30;;;;;;;0.97;99.88;99754.91;5052997;28;20935;-67
2021/01/30 09:06:05;;;;;;;1.37;1.03;;;;;;;1.03;100.00;99755.78;5052844;28;20442;-69
2021/01/30 09:09:02;;;;;;;0.40;0.40;;;;;;;1.02;99.22;99760.31;5053167;28;20438;-68
2021/01/30 09:11:47;;;;;;;0.40;0.37;;;;;;;1.02;99.88;99760.31;5052039;28;20454;-67
2021/01/30 09:14:39;;;;;;;0.40;0.30;;;;;;;1.07;100.00;99763.00;5052719;28;20436;-68
2021/01/30 09:17:32;;;;;;;0.60;0.50;;;;;;;1.14;100.00;99758.22;5053125;28;20434;-67
2021/01/30 09:20:19;;;;;;;0.40;0.30;;;;;;;1.22;99.57;99770.25;5053000;28;20486;-68
2021/01/30 09:22:56;;;;;;;0.40;0.33;;;;;;;1.20;99.30;99765.19;5052693;28;20417;-68
2021/01/30 09:25:35;;;;;;;0.40;0.30;;;;;;;1.25;99.60;99770.56;5052783;28;20970;-68
2021/01/30 09:28:05;;;;;;;0.40;0.30;;;;;;;1.29;99.24;99764.72;5052644;28;20548;-67
2021/01/30 09:30:36;;;;;;;0.40;0.30;;;;;;;1.32;99.51;99777.50;5053031;28;20450;-68
2021/01/30 09:33:10;;;;;;;5.33;1.33;;;;;;;1.38;99.88;99779.16;5053020;28;20433;-68
2021/01/30 09:35:39;;;;;;;0.40;0.30;;;;;;;1.36;99.52;99778.59;5052621;28;20906;-68
2021/01/30 09:38:23;;;;;;;0.40;0.30;;;;;;;1.41;99.20;99783.94;5052439;28;20489;-68
2021/01/30 09:40:49;;;;;;;0.73;0.63;;;;;;;1.38;99.59;99787.97;5051886;28;20502;-67
2021/01/30 09:43:21;;;;;;;0.83;0.83;;;;;;;1.42;99.01;99794.38;5052776;28;20882;-69
2021/01/30 09:45:52;;;;;;;1.53;0.80;;;;;;;1.42;98.39;99794.38;5052881;28;20776;-68
2021/01/30 09:48:19;;;;;;;0.40;0.30;;;;;;;1.46;98.38;99798.13;5052410;28;20924;-69
2021/01/30 09:50:50;;;;;;;0.50;0.50;;;;;;;1.51;98.10;99802.69;5052665;28;20458;-68
2021/01/30 09:53:24;;;;;;;1.03;0.90;;;;;;;1.54;97.96;99801.34;5052393;28;20947;-69
2021/01/30 09:56:02;;;;;;;0.40;0.30;;;;;;;1.62;98.28;99812.34;5052729;28;20426;-68
2021/01/30 09:58:29;;;;;;;0.40;0.30;;;;;;;1.70;98.01;99806.50;5052728;28;20518;-67
2021/01/30 10:00:57;;;;;;;0.40;0.30;;;;;;;1.77;98.22;99807.06;5052592;28;20806;-68
2021/01/30 10:03:33;;;;;;;0.40;0.30;;;;;;;1.81;98.17;99815.31;5052627;28;20540;-69
2021/01/30 10:06:09;;;;;;;0.40;0.30;;;;;;;1.81;97.79;99814.53;5052653;28;20461;-68
2021/01/30 10:08:35;;;;;;;0.40;0.30;;;;;;;1.73;97.76;99815.84;5052659;28;20415;-67
2021/01/30 10:11:06;;;;;;;0.50;0.40;;;;;;;1.61;98.57;99818.75;5052465;28;20465;-68
2021/01/30 10:13:33;;;;;;;0.40;0.30;;;;;;;1.59;98.40;99818.19;5052535;28;20483;-68
2021/01/30 10:16:03;;;;;;;0.40;0.30;;;;;;;1.60;98.31;99813.66;5052524;28;20448;-65
2021/01/30 10:18:31;;;;;;;0.40;0.30;;;;;;;1.54;98.73;99814.69;5052500;28;20478;-67
2021/01/30 10:21:00;;;;;;;0.40;0.30;;;;;;;1.57;98.17;99816.84;5052315;28;20461;-68
2021/01/30 10:23:29;;;;;;;0.40;0.30;;;;;;;1.52;98.18;99812.28;5055497;28;20453;-68
2021/01/30 10:26:04;;;;;;;0.40;0.30;;;;;;;1.61;98.65;99818.75;5056021;28;20525;-68
2021/01/30 10:28:40;;;;;;;0.40;0.40;;;;;;;1.66;98.53;99818.75;5055952;28;20508;-68
2021/01/30 10:31:08;;;;;;;1.60;0.80;;;;;;;1.71;98.71;99818.78;5055780;28;20474;-69
2021/01/30 10:33:35;;;;;;;0.87;0.63;;;;;;;1.80;98.68;99813.72;5055548;28;20953;-68
2021/01/30 10:36:02;;;;;;;0.40;0.30;;;;;;;1.82;98.61;99816.97;5055840;28;20450;-68
2021/01/30 10:38:30;;;;;;;1.07;0.70;;;;;;;1.79;98.38;99822.00;5055292;28;20488;-68
2021/01/30 10:40:59;;;;;;;0.40;0.30;;;;;;;1.82;97.65;99824.16;5055345;28;20530;-68
2021/01/30 10:43:30;;;;;;;0.40;0.30;;;;;;;1.83;98.08;99825.75;5055459;28;20450;-68
2021/01/30 10:45:59;;;;;;;0.40;0.30;;;;;;;1.77;97.26;99825.75;5055422;28;20438;-68
2021/01/30 10:48:30;;;;;;;0.50;0.40;;;;;;;1.60;97.32;99829.69;5055458;28;20440;-68
2021/01/30 10:51:02;;;;;;;0.80;0.50;;;;;;;1.65;97.34;99830.50;5055488;28;20465;-67
2021/01/30 10:53:32;;;;;;;0.40;0.30;;;;;;;1.79;97.40;99827.34;5055482;28;20426;-68
2021/01/30 10:55:58;;;;;;;0.40;0.30;;;;;;;1.89;97.29;99828.19;5055447;28;20449;-67
2021/01/30 10:58:32;;;;;;;0.40;0.30;;;;;;;1.96;96.81;99828.75;5055080;28;20894;-68
2021/01/30 11:01:01;;;;;;;1.63;0.60;;;;;;;2.05;96.17;99834.38;5055164;28;20466;-68
2021/01/30 11:03:41;;;;;;;0.40;0.30;;;;;;;2.14;95.58;99830.13;5055214;28;20442;-69
2021/01/30 11:06:16;;;;;;;0.50;0.47;;;;;;;2.04;95.67;99830.09;5055177;28;20804;-69
2021/01/30 11:08:43;;;;;;;0.40;0.30;;;;;;;2.10;95.77;99829.03;5054820;28;20962;-68
2021/01/30 11:11:12;;;;;;;0.40;0.30;;;;;;;1.98;95.27;99831.94;5055114;28;20461;-68
2021/01/30 11:13:40;;;;;;;0.40;0.30;;;;;;;1.98;95.49;99826.59;5042939;28;20497;-69
2021/01/30 11:16:09;;;;;;;0.40;0.30;;;;;;;2.08;95.26;99836.53;5053678;28;20541;-69
2021/01/30 11:18:39;;;;;;;0.40;0.30;;;;;;;2.08;94.45;99836.53;5054603;28;20489;-68
2021/01/30 11:21:08;;;;;;;0.40;0.30;;;;;;;2.11;94.37;99841.31;5054523;28;21007;-68
2021/01/30 11:23:45;;;;;;;0.40;0.30;;;;;;;1.97;93.04;99842.91;5054902;28;20491;-68
2021/01/30 11:26:35;;;;;;;0.40;0.30;;;;;;;2.01;93.36;99830.63;5054647;28;20428;-68
2021/01/30 11:29:03;;;;;;;0.70;0.63;;;;;;;1.92;93.75;99830.34;5054571;28;20438;-68
2021/01/30 11:31:29;;;;;;;0.40;0.20;;;;;;;1.91;94.30;99835.94;5054097;28;20464;-68
2021/01/30 11:33:58;;;;;;;0.40;0.30;;;;;;;1.98;94.18;99831.13;5053889;28;20450;-67
2021/01/30 11:36:25;;;;;;;0.40;0.30;;;;;;;2.05;94.00;99834.38;5054661;28;20832;-66
2021/01/30 11:38:56;;;;;;;0.40;0.30;;;;;;;2.21;93.84;99836.03;5054183;28;20482;-66
2021/01/30 11:41:22;;;;;;;0.80;0.60;;;;;;;2.30;92.96;99843.50;5054571;28;20461;-68
2021/01/30 11:43:49;;;;;;;0.40;0.30;;;;;;;2.48;92.58;99826.97;5051100;28;20439;-68
2021/01/30 11:46:15;;;;;;;0.40;0.30;;;;;;;2.95;92.53;99831.25;5050412;28;20538;-70
2021/01/30 11:48:41;;;;;;;0.40;0.30;;;;;;;3.98;88.89;99835.22;5040824;28;20490;-67
2021/01/30 11:51:10;;;;;;;1.90;1.30;;;;;;;4.70;81.15;99836.38;5044037;28;20459;-67
2021/01/30 11:53:36;;;;;;;0.40;0.30;;;;;;;5.38;78.48;99829.31;5033886;28;20497;-67
2021/01/30 11:56:03;;;;;;;0.40;0.30;;;;;;;6.32;75.27;99838.38;5033806;28;20474;-66
2021/01/30 11:58:29;;;;;;;1.53;1.43;;;;;;;6.92;71.36;99835.03;5034245;28;20514;-66